Main page
METAR-TAF:

METAR-TAF

Airports :

Gwadar International Airport

Gwadar, Pakistan

latitude: 25-13-59N, longitude: 062-19-46E, elevation: 29 m

METAR: missing

Time: 13:07 (08:07 UTC)

Forecast

The report was made 4 hours and 37 minutes ago, at 03:30 UTC
Forecast valid from 11 at 06 UTC to 12 at 06 UTC
Wind 10 kt from the South/Southwest with gusts up to 20 kt
Visibility: 4000 m
Scattered clouds at a height of 3000 ft
haze
From 11 at 1800 UTC
Wind 7 kt from the Southwest
Visibility: 3000 m
Scattered clouds at a height of 2000 ft
haze
Temporary
from 12 at 00 UTC to 12 at 04 UTC
Wind 2 kt from variable directions
Visibility: 2000 m
Scattered clouds at a height of 2000 ft
haze

TAF: OPGD 110330Z 1106/1206 21010G20KT 4000 HZ SCT030 FM111800 23007KT 3000 HZ SCT020 TEMPO 1200/1204 VRB02KT 2000 HZ SCT020

Weather observations and forecasts of more than 4000 airports (METAR and TAF reports).

The available stations are represented by yellow and red dots on the map.

Hover mouse over dot to see the name of the station.

Then click to see weather observations and forecasts.

To change the map : click on the green buttons with a black cross to zoom in, on the green button with a dash to zoom out, or on the green arrows for adjacent maps.


METAR-TAF: